Main page
METAR-TAF:

METAR-TAF

Airports :

Pointe Noire Airport

Pointe-Noire, Congo

latitude: 04-49S, longitude: 011-54E, elevation: 17 m

Current weather observation

The report was made 1 hour and 19 minutes ago, at 15:00 UTC
Wind 15 kt from the South/Southwest
Temperature 27°C
Humidity 84%
Pressure 1010 hPa
Visibility 10 km or more
Few clouds at a height of 1000 ft
Scattered clouds at a height of 1500 ft
Broken clouds at a height of 2300 ft

METAR: FCPP 251500Z 20015KT 9999 FEW010 SCT015 BKN023 27/24 Q1010 NOSIG

Time: 17:19 (16:19 UTC)

Forecast

The report was made 5 hours and 19 minutes ago, at 11:00 UTC
Forecast valid from 25 at 12 UTC to 26 at 12 UTC
Wind 8 kt from the South/Southwest
Visibility: 9000 m
Scattered clouds at a height of 1000 ft
Broken clouds at a height of 2300 ft
Probability 30%
from 25 at 16 UTC to 25 at 20 UTC
Scattered clouds at a height of 2000 ft
Few clouds at a height of 3000 ft, Cumulonimbus.

TAF: FCPP 251100Z 2512/2612 20008KT 9000 SCT010 BKN023 PROB30 2516/2520 SCT020 FEW030CB

Weather observations and forecasts of more than 4000 airports (METAR and TAF reports).

The available stations are represented by yellow and red dots on the map.

Hover mouse over dot to see the name of the station.

Then click to see weather observations and forecasts.

To change the map : click on the green buttons with a black cross to zoom in, on the green button with a dash to zoom out, or on the green arrows for adjacent maps.


METAR-TAF: